Aztec, NM (87410)

10:26 PM MDT on October 20, 2014 (GMT -0600)
Aztec, NM 87410 | Change Station
CLOSE
Current Station
Personal Weather Station
Location: Aztec, NM
Elevation: 5682 ft
Nearby Weather Stations

Elev 5682 ft 36.82 °N, 107.99 °W | Updated 4 minutes ago

Clear
Clear
48.1 °F
Feels Like 48 °F
N
0.0
Wind Variable Wind from WSW

Today
High -- | Low -- °F
--% Chance of Precip.
Yesterday
High -- | Low -- °F
Precip. -- in
7:24 AM 6:28 PM
Waning Crescent, 7% visible
Pressure 30.04 in
Visibility 10.0 miles
Clouds Clear
Windchill 48 °F
Dew Point 42 °F
Humidity 79%
Rainfall 0.00 in
Snow Depth Not available.
UV 0 out of 12
Pollen 2.70 out of 12
Air Quality Not available.
Flu Activity Sporadic
METAR KFMN 210353Z 08007KT 10SM CLR 12/07 A3013 RMK AO2 SLP172 T01220072

More Conditions Fewer Conditions

Pressure 30.04 in
Visibility 10.0 miles
Clouds Clear
Windchill 48 °F
Dew Point 42 °F
Humidity 79%
Rainfall 0.00 in
Snow Depth Not available.
UV 0 out of 12
Pollen 2.70 out of 12
Air Quality Not available.
Flu Activity Sporadic
METAR KFMN 210353Z 08007KT 10SM CLR 12/07 A3013 RMK AO2 SLP172 T01220072

More Conditions Fewer Conditions

Nowcast | as of 10:03 PM MDT on October 20, 2014

Isolated showers and thunderstorms will continue across portions of western and central New Mexico for the rest of the evening. Movement will be to the northwest at 10 to 15 mph. Most areas where Showers Pass through before midnight will see a tenth of an inch of rain or less. Some locations that may be affected include the Whitewater Baldy burn scar...the Albuquerque and Santa Fe Metro areas...Jemez Springs and Belen. Otherwise...winds may occasionally gust to around 25 mph from the east and southeast into the Rio Grande Valley.

×

10-Day Weather Forecast

Almanac

Astronomy

Oct. 20, 2014 Rise Set
Actual Time 7:24 AM MDT 6:28 PM MDT
Civil Twilight 6:57 AM MDT 6:54 PM MDT
Nautical Twilight 6:27 AM MDT 7:25 PM MDT
Astronomical Twilight 5:57 AM MDT 7:55 PM MDT
Moon 4:19 AM MDT (10/20) 4:49 PM MDT (10/20)
Length of Visible Light 11h 57m
Length of Day
11h 04m
Tomorrow will be 2m 14s shorter.
Waning Crescent, 7% of the Moon is Illuminated
Oct 21
Waning Crescent
Oct 23
New
Oct 30
First Quarter
Nov 6
Full
Nov 14
Last Quarter

Yesterday's Extremes

State Highs State Lows

Community

WunderPhotos

Upload Photos

1,763,608 photos uploaded!

Nearby

Snow Depth

Station Depth Elevation
Chamita 0 in 8400 ft
Senorita Divide #2 0 in 8600 ft
Bateman 0 in 9300 ft
Hopewell 0 in 10000 ft
Quemazon 0 in 9500 ft

Earthquake Activity

City Distance Mag. Time & Date
No recent earthquake activity has been reported nearby.
Minimum magnitude displayed is 2.5.

Coastal Water Temperatures

Place Temperature
No Stations Reporting

Nearby Weather Stations